createdAt,value
2018-07-31T00:00:41.627Z,23.51
2018-07-31T00:01:41.617Z,23.51
2018-07-31T00:02:41.337Z,23.5
2018-07-31T00:03:41.520Z,23.5
2018-07-31T00:04:41.644Z,23.5
2018-07-31T00:05:41.686Z,23.5
2018-07-31T00:06:41.756Z,23.5
2018-07-31T00:07:41.609Z,23.5
2018-07-31T00:08:41.647Z,23.5
2018-07-31T00:09:41.577Z,23.5
2018-07-31T00:10:41.528Z,23.5
2018-07-31T00:11:41.365Z,23.5
2018-07-31T00:12:41.540Z,23.5
2018-07-31T00:13:41.727Z,23.5
2018-07-31T00:14:41.572Z,23.5
2018-07-31T00:15:41.543Z,23.5
2018-07-31T00:16:41.834Z,23.5
2018-07-31T00:17:41.545Z,23.5
2018-07-31T00:18:41.583Z,23.5
2018-07-31T00:19:41.397Z,23.5
2018-07-31T00:20:41.366Z,23.5
2018-07-31T00:21:41.554Z,23.5
2018-07-31T00:22:41.386Z,23.5
2018-07-31T00:23:41.598Z,23.5
2018-07-31T00:24:41.727Z,23.5
2018-07-31T00:25:41.572Z,23.5
2018-07-31T00:26:41.589Z,23.5
2018-07-31T00:27:41.496Z,23.5
2018-07-31T00:28:41.481Z,23.5
2018-07-31T00:29:41.408Z,23.5
2018-07-31T00:30:41.655Z,23.5
2018-07-31T00:31:41.802Z,23.5
2018-07-31T00:32:41.477Z,23.5
2018-07-31T00:33:41.382Z,23.5
2018-07-31T00:34:41.755Z,23.5
2018-07-31T00:35:41.583Z,23.5
2018-07-31T00:36:41.382Z,23.5
2018-07-31T00:37:41.661Z,23.5
2018-07-31T00:38:41.354Z,23.5
2018-07-31T00:39:41.520Z,23.5
2018-07-31T00:40:41.526Z,23.49
2018-07-31T00:41:41.514Z,23.5
2018-07-31T00:42:41.542Z,23.49
2018-07-31T00:43:41.606Z,23.5
2018-07-31T00:44:41.767Z,23.49
2018-07-31T00:45:41.545Z,23.5
2018-07-31T00:46:41.419Z,23.49
2018-07-31T00:47:41.355Z,23.49
2018-07-31T00:48:41.507Z,23.49
2018-07-31T00:49:41.862Z,23.49
2018-07-31T00:50:41.508Z,23.49
2018-07-31T00:51:41.508Z,23.49
2018-07-31T00:52:41.602Z,23.49
2018-07-31T00:53:41.819Z,23.49
2018-07-31T00:54:41.713Z,23.49
2018-07-31T00:55:41.471Z,23.49
2018-07-31T00:56:41.392Z,23.49
2018-07-31T00:57:41.611Z,23.49
2018-07-31T00:58:41.828Z,23.49
2018-07-31T00:59:41.647Z,23.49
2018-07-31T01:00:41.385Z,23.49
2018-07-31T01:01:41.437Z,23.49
2018-07-31T01:02:41.665Z,23.49
2018-07-31T01:03:41.537Z,23.49
2018-07-31T01:04:41.537Z,23.48
2018-07-31T01:05:41.352Z,23.48
2018-07-31T01:06:41.474Z,23.48
2018-07-31T01:07:41.537Z,23.48
2018-07-31T01:08:41.424Z,23.48
2018-07-31T01:09:41.491Z,23.48
2018-07-31T01:10:41.589Z,23.48
2018-07-31T01:11:41.509Z,23.48
2018-07-31T01:12:41.592Z,23.48
2018-07-31T01:13:41.530Z,23.48
2018-07-31T01:14:41.469Z,23.47
2018-07-31T01:15:41.494Z,23.47
2018-07-31T01:16:41.559Z,23.48
2018-07-31T01:17:41.528Z,23.48
2018-07-31T01:18:41.591Z,23.48
2018-07-31T01:19:41.567Z,23.48
2018-07-31T01:20:41.678Z,23.47
2018-07-31T01:21:41.530Z,23.47
2018-07-31T01:22:41.549Z,23.47
2018-07-31T01:23:41.349Z,23.47
2018-07-31T01:24:41.658Z,23.47
2018-07-31T01:25:41.581Z,23.47
2018-07-31T01:26:41.579Z,23.47
2018-07-31T01:27:41.518Z,23.47
2018-07-31T01:28:41.606Z,23.48
2018-07-31T01:29:41.419Z,23.47
2018-07-31T01:30:41.634Z,23.47
2018-07-31T01:31:41.639Z,23.47
2018-07-31T01:32:41.436Z,23.47
2018-07-31T01:33:41.392Z,23.47
2018-07-31T01:34:41.562Z,23.47
2018-07-31T01:35:41.427Z,23.47
2018-07-31T01:36:41.463Z,23.47
2018-07-31T01:37:41.416Z,23.47
2018-07-31T01:38:41.467Z,23.47
2018-07-31T01:39:41.455Z,23.47
2018-07-31T01:40:41.613Z,23.47
2018-07-31T01:41:41.369Z,23.47
2018-07-31T01:42:41.429Z,23.47
2018-07-31T01:43:41.558Z,23.46
2018-07-31T01:44:41.545Z,23.47
2018-07-31T01:45:41.813Z,23.46
2018-07-31T01:46:41.533Z,23.46
2018-07-31T01:47:41.524Z,23.46
2018-07-31T01:48:41.852Z,23.46
2018-07-31T01:49:41.668Z,23.46
2018-07-31T01:50:41.334Z,23.46
2018-07-31T01:51:41.375Z,23.46
2018-07-31T01:52:41.420Z,23.46
2018-07-31T01:53:41.416Z,23.46
2018-07-31T01:54:41.359Z,23.46
2018-07-31T01:55:41.438Z,23.46
2018-07-31T01:56:41.533Z,23.46
2018-07-31T01:57:41.551Z,23.46
2018-07-31T01:58:41.595Z,23.46
2018-07-31T01:59:41.936Z,23.45
2018-07-31T02:00:41.808Z,23.46
2018-07-31T02:01:41.552Z,23.46
2018-07-31T02:02:41.660Z,23.46
2018-07-31T02:03:41.495Z,23.46
2018-07-31T02:04:41.609Z,23.46
2018-07-31T02:05:41.553Z,23.46
2018-07-31T02:06:41.592Z,23.46
2018-07-31T02:07:41.469Z,23.46
2018-07-31T02:08:41.398Z,23.45
2018-07-31T02:09:41.541Z,23.45
2018-07-31T02:10:41.459Z,23.46
2018-07-31T02:11:41.495Z,23.45
2018-07-31T02:12:41.675Z,23.46
2018-07-31T02:13:41.647Z,23.45
2018-07-31T02:14:41.515Z,23.45
2018-07-31T02:15:41.685Z,23.45
2018-07-31T02:16:41.550Z,23.45
2018-07-31T02:17:41.474Z,23.45
2018-07-31T02:18:41.475Z,23.45
2018-07-31T02:19:41.493Z,23.45
2018-07-31T02:20:41.590Z,23.45
2018-07-31T02:21:41.575Z,23.45
2018-07-31T02:22:41.602Z,23.45
2018-07-31T02:23:41.419Z,23.45
2018-07-31T02:24:41.597Z,23.45
2018-07-31T02:25:41.429Z,23.45
2018-07-31T02:26:41.362Z,23.45
2018-07-31T02:27:41.556Z,23.45
2018-07-31T02:28:42.249Z,23.45
2018-07-31T02:29:41.605Z,23.44
2018-07-31T02:30:41.566Z,23.45
2018-07-31T02:31:41.467Z,23.44
2018-07-31T02:32:41.460Z,23.44
2018-07-31T02:33:41.417Z,23.44
2018-07-31T02:34:41.487Z,23.45
2018-07-31T02:35:41.323Z,23.44
2018-07-31T02:36:41.624Z,23.44
2018-07-31T02:37:41.600Z,23.44
2018-07-31T02:38:41.474Z,23.44
2018-07-31T02:39:41.736Z,23.44
2018-07-31T02:40:41.605Z,23.44
2018-07-31T02:41:41.416Z,23.44
2018-07-31T02:42:41.846Z,23.44
2018-07-31T02:43:41.437Z,23.44
2018-07-31T02:44:41.445Z,23.44
2018-07-31T02:45:41.619Z,23.44
2018-07-31T02:46:41.552Z,23.44
2018-07-31T02:47:41.845Z,23.44
2018-07-31T02:48:41.384Z,23.44
2018-07-31T02:49:41.402Z,23.44
2018-07-31T02:50:41.516Z,23.44
2018-07-31T02:51:41.413Z,23.44
2018-07-31T02:52:41.931Z,23.44
2018-07-31T02:53:41.383Z,23.44
2018-07-31T02:54:41.452Z,23.44
2018-07-31T02:55:41.593Z,23.44
2018-07-31T02:56:41.716Z,23.44
2018-07-31T02:57:41.841Z,23.44
2018-07-31T02:58:41.438Z,23.44
2018-07-31T02:59:41.515Z,23.44
2018-07-31T03:00:41.778Z,23.44
2018-07-31T03:01:41.816Z,23.44
2018-07-31T03:02:41.403Z,23.44
2018-07-31T03:03:41.772Z,23.44
2018-07-31T03:04:41.672Z,23.44
2018-07-31T03:05:41.545Z,23.44
2018-07-31T03:06:41.459Z,23.44
2018-07-31T03:07:41.548Z,23.44
2018-07-31T03:08:41.458Z,23.44
2018-07-31T03:09:41.692Z,23.44
2018-07-31T03:10:41.876Z,23.44
2018-07-31T03:11:41.343Z,23.44
2018-07-31T03:12:41.461Z,23.44
2018-07-31T03:13:41.429Z,23.44
2018-07-31T03:14:41.490Z,23.44
2018-07-31T03:15:41.574Z,23.44
2018-07-31T03:16:41.642Z,23.44
2018-07-31T03:17:41.744Z,23.44
2018-07-31T03:18:41.424Z,23.44
2018-07-31T03:19:41.530Z,23.44
2018-07-31T03:20:41.457Z,23.44
2018-07-31T03:21:41.535Z,23.44
2018-07-31T03:22:41.404Z,23.44
2018-07-31T03:23:41.564Z,23.44
2018-07-31T03:24:41.570Z,23.44
2018-07-31T03:25:41.599Z,23.44
2018-07-31T03:26:41.363Z,23.44
2018-07-31T03:27:41.358Z,23.44
2018-07-31T03:28:41.543Z,23.44
2018-07-31T03:29:41.252Z,23.43
2018-07-31T03:30:41.608Z,23.44
2018-07-31T03:31:41.564Z,23.43
2018-07-31T03:32:41.543Z,23.43
2018-07-31T03:33:41.591Z,23.43
2018-07-31T03:34:41.521Z,23.43
2018-07-31T03:35:41.535Z,23.43
2018-07-31T03:36:41.495Z,23.43
2018-07-31T03:37:41.582Z,23.43
2018-07-31T03:38:41.352Z,23.43
2018-07-31T03:39:41.431Z,23.43
2018-07-31T03:40:41.442Z,23.43
2018-07-31T03:41:41.375Z,23.43
2018-07-31T03:42:41.477Z,23.43
2018-07-31T03:43:41.483Z,23.43
2018-07-31T03:44:41.372Z,23.43
2018-07-31T03:45:41.424Z,23.43
2018-07-31T03:46:41.425Z,23.43
2018-07-31T03:47:41.306Z,23.43
2018-07-31T03:48:41.543Z,23.43
2018-07-31T03:49:41.537Z,23.43
2018-07-31T03:50:41.600Z,23.42
2018-07-31T03:51:41.658Z,23.43
2018-07-31T03:52:41.486Z,23.42
2018-07-31T03:53:41.373Z,23.43
2018-07-31T03:54:41.402Z,23.42
2018-07-31T03:55:41.445Z,23.42
2018-07-31T03:56:41.590Z,23.43
2018-07-31T03:57:41.874Z,23.42
2018-07-31T03:58:41.328Z,23.42
2018-07-31T03:59:41.499Z,23.43
2018-07-31T04:00:41.516Z,23.42
2018-07-31T04:01:41.569Z,23.42
2018-07-31T04:02:41.560Z,23.42
2018-07-31T04:03:41.520Z,23.43
2018-07-31T04:04:41.976Z,23.42
2018-07-31T04:05:41.438Z,23.42
2018-07-31T04:06:41.622Z,23.38
2018-07-31T04:07:41.372Z,23.31
2018-07-31T04:08:41.328Z,23.28
2018-07-31T04:09:41.511Z,23.22
2018-07-31T04:10:41.466Z,23.17
2018-07-31T04:11:41.403Z,23.1
2018-07-31T04:12:41.562Z,23.06
2018-07-31T04:13:41.575Z,23.04
2018-07-31T04:14:41.477Z,22.96
2018-07-31T04:15:41.487Z,22.92
2018-07-31T04:16:41.573Z,22.95
2018-07-31T04:17:41.441Z,22.92
2018-07-31T04:18:41.462Z,22.93
2018-07-31T04:19:41.752Z,22.89
2018-07-31T04:20:41.354Z,22.85
2018-07-31T04:21:41.564Z,22.77
2018-07-31T04:22:41.555Z,22.81
2018-07-31T04:23:41.587Z,22.77
2018-07-31T04:24:41.653Z,22.76
2018-07-31T04:25:41.672Z,22.76
2018-07-31T04:26:41.509Z,22.72
2018-07-31T04:27:41.553Z,22.7
2018-07-31T04:28:41.496Z,22.7
2018-07-31T04:29:41.328Z,22.66
2018-07-31T04:30:41.514Z,22.66
2018-07-31T04:31:41.508Z,22.64
2018-07-31T04:32:41.326Z,22.63
2018-07-31T04:33:41.433Z,22.63
2018-07-31T04:34:41.566Z,22.64
2018-07-31T04:35:41.512Z,22.58
2018-07-31T04:36:41.523Z,22.57
2018-07-31T04:37:41.598Z,22.58
2018-07-31T04:38:41.350Z,22.58
2018-07-31T04:39:41.508Z,22.6
2018-07-31T04:40:41.467Z,22.59
2018-07-31T04:41:41.498Z,22.58
2018-07-31T04:42:41.590Z,22.56
2018-07-31T04:43:41.597Z,22.55
2018-07-31T04:44:41.453Z,22.53
2018-07-31T04:45:41.546Z,22.54
2018-07-31T04:46:41.561Z,22.55
2018-07-31T04:47:41.343Z,22.58
2018-07-31T04:48:41.375Z,22.58
2018-07-31T04:49:41.517Z,22.54
2018-07-31T04:50:41.376Z,22.56
2018-07-31T04:51:41.329Z,22.56
2018-07-31T04:52:41.334Z,22.54
2018-07-31T04:53:41.495Z,22.53
2018-07-31T04:54:41.391Z,22.52
2018-07-31T04:55:41.540Z,22.53
2018-07-31T04:56:41.512Z,22.52
2018-07-31T04:57:41.487Z,22.51
2018-07-31T04:58:41.501Z,22.5
2018-07-31T04:59:41.509Z,22.52
2018-07-31T05:00:41.752Z,22.49
2018-07-31T05:01:41.604Z,22.48
2018-07-31T05:02:41.527Z,22.47
2018-07-31T05:03:41.626Z,22.47
2018-07-31T05:04:41.491Z,22.47
2018-07-31T05:05:41.303Z,22.47
2018-07-31T05:06:41.478Z,22.47
2018-07-31T05:07:41.790Z,22.47
2018-07-31T05:08:41.439Z,22.45
2018-07-31T05:09:41.588Z,22.48
2018-07-31T05:10:41.579Z,22.48
2018-07-31T05:11:41.331Z,22.47
2018-07-31T05:12:41.421Z,22.48
2018-07-31T05:13:41.477Z,22.49
2018-07-31T05:14:41.229Z,22.49
2018-07-31T05:15:41.429Z,22.48
2018-07-31T05:16:41.527Z,22.52
2018-07-31T05:17:41.842Z,22.53
2018-07-31T05:18:41.384Z,22.55
2018-07-31T05:19:41.544Z,22.56
2018-07-31T05:20:41.512Z,22.58
2018-07-31T05:21:41.475Z,22.62
2018-07-31T05:22:41.567Z,22.64
2018-07-31T05:23:41.570Z,22.65
2018-07-31T05:24:41.440Z,22.67
2018-07-31T05:25:41.560Z,22.69
2018-07-31T05:26:41.417Z,22.7
2018-07-31T05:27:41.706Z,22.71
2018-07-31T05:28:41.495Z,22.73
2018-07-31T05:29:41.490Z,22.74
2018-07-31T05:30:41.403Z,22.76
2018-07-31T05:31:41.564Z,22.76
2018-07-31T05:32:42.083Z,22.77
2018-07-31T05:33:41.491Z,22.78
2018-07-31T05:34:41.440Z,22.79
2018-07-31T05:35:41.483Z,22.8
2018-07-31T05:36:41.728Z,22.81
2018-07-31T05:37:41.538Z,22.81
2018-07-31T05:38:41.460Z,22.81
2018-07-31T05:39:41.519Z,22.82
2018-07-31T05:40:41.412Z,22.83
2018-07-31T05:41:41.312Z,22.84
2018-07-31T05:42:41.882Z,22.84
2018-07-31T05:43:41.586Z,22.85
2018-07-31T05:44:42.967Z,22.86
2018-07-31T05:45:41.549Z,22.87
2018-07-31T05:46:41.363Z,22.87
2018-07-31T05:47:41.505Z,22.87
2018-07-31T05:48:41.335Z,22.87
2018-07-31T05:49:41.488Z,22.88
2018-07-31T05:50:41.494Z,22.88
2018-07-31T05:51:41.526Z,22.89
2018-07-31T05:52:41.605Z,22.9
2018-07-31T05:53:41.490Z,22.9
2018-07-31T05:54:41.414Z,22.9
2018-07-31T05:55:41.525Z,22.91
2018-07-31T05:56:41.636Z,22.91
2018-07-31T05:57:41.648Z,22.92
2018-07-31T05:58:41.754Z,22.92
2018-07-31T05:59:41.347Z,22.92
2018-07-31T06:00:41.408Z,22.93
2018-07-31T06:01:41.437Z,22.93
2018-07-31T06:02:41.486Z,22.93
2018-07-31T06:03:41.609Z,22.93
2018-07-31T06:04:41.584Z,22.94
2018-07-31T06:05:41.419Z,22.93
2018-07-31T06:06:41.508Z,22.94
2018-07-31T06:07:41.454Z,22.94
2018-07-31T06:08:41.346Z,22.94
2018-07-31T06:09:42.147Z,22.95
2018-07-31T06:10:41.602Z,22.95
2018-07-31T06:11:41.324Z,22.95
2018-07-31T06:12:41.385Z,22.96
2018-07-31T06:13:41.344Z,22.96
2018-07-31T06:14:41.502Z,22.96
2018-07-31T06:15:41.367Z,22.97
2018-07-31T06:16:41.444Z,22.97
2018-07-31T06:17:41.297Z,22.97
2018-07-31T06:18:41.531Z,22.97
2018-07-31T06:19:41.439Z,22.98
2018-07-31T06:20:41.501Z,22.98
2018-07-31T06:21:41.486Z,22.98
2018-07-31T06:22:41.470Z,22.98
2018-07-31T06:23:41.326Z,22.98
2018-07-31T06:24:41.319Z,22.98
2018-07-31T06:25:42.384Z,22.99
2018-07-31T06:26:41.995Z,22.99
2018-07-31T06:27:41.323Z,22.99
2018-07-31T06:28:41.559Z,22.99
2018-07-31T06:29:41.460Z,22.99
2018-07-31T06:30:41.468Z,23
2018-07-31T06:31:41.287Z,23
2018-07-31T06:32:41.373Z,23
2018-07-31T06:33:41.499Z,23
2018-07-31T06:34:41.857Z,23.01
2018-07-31T06:35:41.471Z,23.01
2018-07-31T06:36:41.312Z,23.01
2018-07-31T06:37:41.634Z,23.02
2018-07-31T06:38:41.395Z,23.01
2018-07-31T06:39:41.352Z,23.02
2018-07-31T06:40:41.423Z,23.02
2018-07-31T06:41:41.477Z,23.02
2018-07-31T06:42:41.540Z,23.02
2018-07-31T06:43:41.564Z,23.03
2018-07-31T06:44:41.352Z,23.03
2018-07-31T06:45:41.347Z,23.03
2018-07-31T06:46:41.553Z,23.03
2018-07-31T06:47:41.517Z,23.03
2018-07-31T06:48:41.409Z,23.04
2018-07-31T06:49:41.614Z,23.04
2018-07-31T06:50:41.427Z,23.04
2018-07-31T06:51:41.496Z,23.04
2018-07-31T06:52:41.466Z,23.04
2018-07-31T06:53:41.469Z,23.04
2018-07-31T06:54:41.380Z,23.04
2018-07-31T06:55:41.878Z,23.04
2018-07-31T06:56:41.777Z,23.04
2018-07-31T06:57:41.399Z,23.05
2018-07-31T06:58:41.367Z,23.05
2018-07-31T06:59:42.472Z,23.05
2018-07-31T07:00:41.557Z,23.05
2018-07-31T07:01:41.361Z,23.05
2018-07-31T07:02:41.303Z,23.05
2018-07-31T07:03:41.307Z,23.06
2018-07-31T07:04:41.504Z,23.06
2018-07-31T07:05:41.591Z,23.06
2018-07-31T07:06:41.363Z,23.06
2018-07-31T07:07:41.427Z,23.06
2018-07-31T07:08:41.481Z,23.06
2018-07-31T07:09:41.422Z,23.06
2018-07-31T07:10:41.563Z,23.07
2018-07-31T07:11:41.565Z,23.06
2018-07-31T07:12:41.655Z,23.07
2018-07-31T07:13:41.616Z,23.07
2018-07-31T07:14:41.546Z,23.07
2018-07-31T07:15:41.549Z,23.07
2018-07-31T07:16:41.741Z,23.08
2018-07-31T07:17:41.330Z,23.07
2018-07-31T07:18:41.518Z,23.08
2018-07-31T07:19:41.382Z,23.08
2018-07-31T07:20:41.241Z,23.08
2018-07-31T07:21:41.485Z,23.08
2018-07-31T07:22:41.884Z,23.08
2018-07-31T07:23:41.473Z,23.08
2018-07-31T07:24:41.485Z,23.08
2018-07-31T07:25:41.432Z,23.09
2018-07-31T07:26:41.443Z,23.09
2018-07-31T07:27:41.353Z,23.09
2018-07-31T07:28:41.453Z,23.09
2018-07-31T07:29:41.259Z,23.09
2018-07-31T07:30:41.442Z,23.09
2018-07-31T07:31:41.685Z,23.09
2018-07-31T07:32:41.407Z,23.09
2018-07-31T07:33:42.164Z,23.09
2018-07-31T07:34:41.167Z,23.09
2018-07-31T07:35:41.302Z,23.09
2018-07-31T07:36:41.256Z,23.1
2018-07-31T07:37:41.564Z,23.1
2018-07-31T07:38:41.271Z,23.1
2018-07-31T07:39:41.443Z,23.1
2018-07-31T07:40:41.310Z,23.1
2018-07-31T07:41:41.353Z,23.1
2018-07-31T07:42:41.374Z,23.1
2018-07-31T07:43:41.565Z,23.1
2018-07-31T07:44:41.663Z,23.1
2018-07-31T07:45:41.583Z,23.1
2018-07-31T07:46:41.651Z,23.1
2018-07-31T07:47:41.456Z,23.1
2018-07-31T07:48:41.496Z,23.1
2018-07-31T07:49:41.330Z,23.1
2018-07-31T07:50:41.538Z,23.1
2018-07-31T07:51:41.358Z,23.1
2018-07-31T07:52:41.454Z,23.1
2018-07-31T07:53:41.592Z,23.1
2018-07-31T07:54:41.379Z,23.1
2018-07-31T07:55:41.543Z,23.1
2018-07-31T07:56:41.392Z,23.11
2018-07-31T07:57:41.583Z,23.11
2018-07-31T07:58:41.257Z,23.11
2018-07-31T07:59:41.516Z,23.11
2018-07-31T08:00:41.495Z,23.11
2018-07-31T08:01:41.311Z,23.11
2018-07-31T08:02:41.348Z,23.11
2018-07-31T08:03:42.139Z,23.11
2018-07-31T08:04:41.452Z,23.11
2018-07-31T08:05:41.781Z,23.11
2018-07-31T08:06:41.408Z,23.11
2018-07-31T08:07:41.315Z,23.12
2018-07-31T08:08:41.374Z,23.11
2018-07-31T08:09:41.963Z,23.14
2018-07-31T08:10:41.754Z,23.15
2018-07-31T08:11:41.389Z,23.16
2018-07-31T08:12:41.738Z,23.16
2018-07-31T08:13:41.309Z,23.17
2018-07-31T08:14:41.307Z,23.19
2018-07-31T08:15:41.414Z,23.21
2018-07-31T08:16:41.397Z,23.21
2018-07-31T08:17:41.546Z,23.22
2018-07-31T08:18:41.448Z,23.23
2018-07-31T08:19:41.315Z,23.23
2018-07-31T08:20:41.336Z,23.24
2018-07-31T08:21:41.437Z,23.24
2018-07-31T08:22:42.042Z,23.25
2018-07-31T08:23:41.617Z,23.25
2018-07-31T08:24:41.499Z,23.26
2018-07-31T08:25:41.291Z,23.26
2018-07-31T08:26:41.364Z,23.26
2018-07-31T08:27:41.860Z,23.27
2018-07-31T08:28:41.437Z,23.27
2018-07-31T08:29:41.385Z,23.27
2018-07-31T08:30:41.368Z,23.28
2018-07-31T08:31:41.647Z,23.28
2018-07-31T08:32:41.338Z,23.29
2018-07-31T08:33:41.424Z,23.29
2018-07-31T08:34:41.393Z,23.3
2018-07-31T08:35:41.451Z,23.3
2018-07-31T08:36:41.475Z,23.31
2018-07-31T08:37:41.509Z,23.31
2018-07-31T08:38:41.479Z,23.31
2018-07-31T08:39:41.272Z,23.32
2018-07-31T08:40:41.396Z,23.33
2018-07-31T08:41:41.408Z,23.33
2018-07-31T08:42:41.422Z,23.34
2018-07-31T08:43:41.498Z,23.33
2018-07-31T08:44:41.606Z,23.33
2018-07-31T08:45:41.277Z,23.35
2018-07-31T08:46:41.577Z,23.34
2018-07-31T08:47:41.439Z,23.35
2018-07-31T08:48:41.493Z,23.35
2018-07-31T08:49:41.476Z,23.35
2018-07-31T08:50:41.397Z,23.35
2018-07-31T08:51:41.488Z,23.36
2018-07-31T08:52:41.323Z,23.37
2018-07-31T08:53:41.456Z,23.4
2018-07-31T08:54:41.443Z,23.38
2018-07-31T08:55:41.880Z,23.38
2018-07-31T08:56:41.329Z,23.37
2018-07-31T08:57:41.848Z,23.37
2018-07-31T08:58:41.369Z,23.36
2018-07-31T08:59:41.572Z,23.35
2018-07-31T09:00:41.445Z,23.35
2018-07-31T09:01:41.518Z,23.35
2018-07-31T09:02:41.815Z,23.34
2018-07-31T09:03:41.219Z,23.34
2018-07-31T09:04:41.349Z,23.34
2018-07-31T09:05:41.574Z,23.34
2018-07-31T09:06:41.561Z,23.33
2018-07-31T09:07:41.465Z,23.33
2018-07-31T09:08:42.268Z,23.33
2018-07-31T09:09:41.594Z,23.33
2018-07-31T09:10:41.565Z,23.33
2018-07-31T09:11:41.635Z,23.33
2018-07-31T09:12:41.409Z,23.33
2018-07-31T09:13:41.506Z,23.33
2018-07-31T09:14:41.513Z,23.32
2018-07-31T09:15:41.432Z,23.32
2018-07-31T09:16:41.464Z,23.32
2018-07-31T09:17:41.792Z,23.31
2018-07-31T09:18:41.335Z,23.32
2018-07-31T09:19:41.426Z,23.31
2018-07-31T09:20:41.677Z,23.31
2018-07-31T09:21:41.229Z,23.31
2018-07-31T09:22:41.411Z,23.31
2018-07-31T09:23:41.408Z,23.3
2018-07-31T09:24:42.462Z,23.31
2018-07-31T09:25:41.620Z,23.3
2018-07-31T09:26:41.755Z,23.3
2018-07-31T09:27:41.603Z,23.3
2018-07-31T09:28:41.342Z,23.3
2018-07-31T09:29:41.461Z,23.3
2018-07-31T09:30:41.818Z,23.3
2018-07-31T09:31:41.570Z,23.3
2018-07-31T09:32:41.433Z,23.3
2018-07-31T09:33:41.421Z,23.3
2018-07-31T09:34:41.499Z,23.3
2018-07-31T09:35:41.360Z,23.3
2018-07-31T09:36:41.377Z,23.3
2018-07-31T09:37:41.535Z,23.3
2018-07-31T09:38:41.515Z,23.3
2018-07-31T09:39:41.233Z,23.3
2018-07-31T09:40:41.337Z,23.3
2018-07-31T09:41:41.419Z,23.3
2018-07-31T09:42:41.910Z,23.3
2018-07-31T09:43:41.398Z,23.3
2018-07-31T09:44:41.587Z,23.3
2018-07-31T09:45:41.440Z,23.3
2018-07-31T09:46:41.426Z,23.3
2018-07-31T09:47:41.518Z,23.29
2018-07-31T09:48:41.368Z,23.29
2018-07-31T09:49:41.525Z,23.3
2018-07-31T09:50:41.619Z,23.29
2018-07-31T09:51:41.296Z,23.29
2018-07-31T09:52:41.348Z,23.29
2018-07-31T09:53:41.308Z,23.29
2018-07-31T09:54:41.386Z,23.29
2018-07-31T09:55:41.472Z,23.29
2018-07-31T09:56:41.531Z,23.3
2018-07-31T09:57:41.284Z,23.29
2018-07-31T09:58:41.274Z,23.29
2018-07-31T09:59:41.262Z,23.29
2018-07-31T10:00:41.371Z,23.29
2018-07-31T10:01:41.382Z,23.29
2018-07-31T10:02:41.318Z,23.29
2018-07-31T10:03:41.401Z,23.29
2018-07-31T10:04:41.533Z,23.29
2018-07-31T10:05:41.389Z,23.28
2018-07-31T10:06:41.250Z,23.29
2018-07-31T10:07:41.342Z,23.29
2018-07-31T10:08:41.347Z,23.29
2018-07-31T10:09:41.541Z,23.28
2018-07-31T10:10:41.443Z,23.29
2018-07-31T10:11:41.673Z,23.29
2018-07-31T10:12:41.538Z,23.29
2018-07-31T10:13:41.394Z,23.29
2018-07-31T10:14:41.392Z,23.29
2018-07-31T10:15:41.288Z,23.29
2018-07-31T10:16:41.280Z,23.29
2018-07-31T10:17:41.817Z,23.29
2018-07-31T10:18:41.293Z,23.29
2018-07-31T10:19:41.359Z,23.29
2018-07-31T10:20:41.293Z,23.29
2018-07-31T10:21:41.511Z,23.29
2018-07-31T10:22:41.723Z,23.29
2018-07-31T10:23:41.375Z,23.29
2018-07-31T10:24:41.266Z,23.29
2018-07-31T10:25:41.477Z,23.28
2018-07-31T10:26:41.231Z,23.29
2018-07-31T10:27:41.384Z,23.28
2018-07-31T10:28:41.284Z,23.29
2018-07-31T10:29:41.307Z,23.28
2018-07-31T10:30:42.137Z,23.29
2018-07-31T10:31:41.549Z,23.29
2018-07-31T10:32:41.426Z,23.29
2018-07-31T10:33:41.492Z,23.29
2018-07-31T10:34:41.462Z,23.29
2018-07-31T10:35:41.361Z,23.29
2018-07-31T10:36:41.370Z,23.29
2018-07-31T10:37:41.807Z,23.29
2018-07-31T10:38:41.419Z,23.29
2018-07-31T10:39:41.200Z,23.29
2018-07-31T10:40:41.347Z,23.29
2018-07-31T10:41:41.387Z,23.29
2018-07-31T10:42:41.361Z,23.29
2018-07-31T10:43:41.801Z,23.29
2018-07-31T10:44:41.314Z,23.28
2018-07-31T10:45:41.568Z,23.29
2018-07-31T10:46:41.564Z,23.29
2018-07-31T10:47:41.296Z,23.28
2018-07-31T10:48:41.290Z,23.29
2018-07-31T10:49:41.415Z,23.28
2018-07-31T10:50:41.926Z,23.29
2018-07-31T10:51:41.413Z,23.29
2018-07-31T10:52:41.318Z,23.28
2018-07-31T10:53:41.260Z,23.29
2018-07-31T10:54:41.440Z,23.29
2018-07-31T10:55:41.447Z,23.29
2018-07-31T10:56:41.594Z,23.29
2018-07-31T10:57:41.336Z,23.28
2018-07-31T10:58:42.298Z,23.28
2018-07-31T10:59:42.121Z,23.29
2018-07-31T11:00:41.317Z,23.28
2018-07-31T11:01:41.338Z,23.29
2018-07-31T11:02:41.562Z,23.28
2018-07-31T11:03:41.502Z,23.29
2018-07-31T11:04:41.406Z,23.29
2018-07-31T11:05:41.407Z,23.29
2018-07-31T11:06:41.373Z,23.29
2018-07-31T11:07:41.409Z,23.29
2018-07-31T11:08:41.244Z,23.29
2018-07-31T11:09:41.542Z,23.29
2018-07-31T11:10:41.354Z,23.29
2018-07-31T11:11:41.243Z,23.29
2018-07-31T11:12:41.409Z,23.29
2018-07-31T11:13:41.305Z,23.29
2018-07-31T11:14:41.524Z,23.29
2018-07-31T11:15:41.246Z,23.29
2018-07-31T11:16:41.341Z,23.29
2018-07-31T11:17:41.271Z,23.29
2018-07-31T11:18:41.320Z,23.29
2018-07-31T11:19:41.503Z,23.29
2018-07-31T11:20:41.235Z,23.29
2018-07-31T11:21:41.387Z,23.29
2018-07-31T11:22:41.483Z,23.29
2018-07-31T11:23:41.217Z,23.29
2018-07-31T11:24:41.654Z,23.29
2018-07-31T11:25:41.380Z,23.29
2018-07-31T11:26:41.322Z,23.29
2018-07-31T11:27:41.529Z,23.29
2018-07-31T11:28:41.496Z,23.29
2018-07-31T11:29:41.738Z,23.29
2018-07-31T11:30:41.408Z,23.29
2018-07-31T11:31:41.385Z,23.29
2018-07-31T11:32:41.301Z,23.29
2018-07-31T11:33:41.394Z,23.29
2018-07-31T11:34:41.757Z,23.29
2018-07-31T11:35:41.340Z,23.29
2018-07-31T11:36:41.566Z,23.29
2018-07-31T11:37:41.445Z,23.29
2018-07-31T11:38:41.445Z,23.29
2018-07-31T11:39:41.366Z,23.29
2018-07-31T11:40:41.293Z,23.29
2018-07-31T11:41:41.281Z,23.29
2018-07-31T11:42:41.380Z,23.29
2018-07-31T11:43:41.565Z,23.29
2018-07-31T11:44:41.433Z,23.29
2018-07-31T11:45:41.391Z,23.3
2018-07-31T11:46:41.474Z,23.29
2018-07-31T11:47:41.455Z,23.29
2018-07-31T11:48:41.296Z,23.3
2018-07-31T11:49:41.714Z,23.3
2018-07-31T11:50:41.477Z,23.29
2018-07-31T11:51:41.881Z,23.3
2018-07-31T11:52:41.382Z,23.3
2018-07-31T11:53:41.490Z,23.29
2018-07-31T11:54:41.521Z,23.29
2018-07-31T11:55:41.633Z,23.29
2018-07-31T11:56:41.530Z,23.29
2018-07-31T11:57:41.454Z,23.29
2018-07-31T11:58:41.220Z,23.3
2018-07-31T11:59:41.411Z,23.3
2018-07-31T12:00:41.497Z,23.3
2018-07-31T12:01:41.584Z,23.3
2018-07-31T12:02:41.347Z,23.3
2018-07-31T12:03:41.383Z,23.3
2018-07-31T12:04:41.307Z,23.3
2018-07-31T12:05:41.600Z,23.3
2018-07-31T12:06:41.493Z,23.3
2018-07-31T12:07:41.161Z,23.3
2018-07-31T12:08:41.548Z,23.3
2018-07-31T12:09:41.587Z,23.3
2018-07-31T12:10:41.556Z,23.3
2018-07-31T12:11:41.509Z,23.3
2018-07-31T12:12:41.286Z,23.3
2018-07-31T12:13:41.417Z,23.3
2018-07-31T12:14:41.458Z,23.3
2018-07-31T12:15:41.266Z,23.3
2018-07-31T12:16:41.252Z,23.3
2018-07-31T12:17:41.425Z,23.3
2018-07-31T12:18:41.431Z,23.3
2018-07-31T12:19:41.465Z,23.3
2018-07-31T12:20:41.278Z,23.3
2018-07-31T12:21:41.448Z,23.3
2018-07-31T12:22:41.413Z,23.3
2018-07-31T12:23:41.574Z,23.3
2018-07-31T12:24:41.240Z,23.3
2018-07-31T12:25:41.241Z,23.3
2018-07-31T12:26:41.553Z,23.3
2018-07-31T12:27:41.367Z,23.3
2018-07-31T12:28:41.498Z,23.3
2018-07-31T12:29:41.233Z,23.3
2018-07-31T12:30:41.393Z,23.3
2018-07-31T12:31:41.375Z,23.31
2018-07-31T12:32:41.755Z,23.31
2018-07-31T12:33:41.336Z,23.31
2018-07-31T12:34:41.291Z,23.31
2018-07-31T12:35:41.293Z,23.31
2018-07-31T12:36:41.371Z,23.31
2018-07-31T12:37:41.369Z,23.31
2018-07-31T12:38:43.225Z,23.31
2018-07-31T12:39:41.296Z,23.3
2018-07-31T12:40:41.321Z,23.31
2018-07-31T12:41:41.309Z,23.3
2018-07-31T12:42:41.292Z,23.31
2018-07-31T12:43:41.237Z,23.31
2018-07-31T12:44:41.396Z,23.31
2018-07-31T12:45:41.207Z,23.31
2018-07-31T12:46:41.450Z,23.31
2018-07-31T12:47:41.496Z,23.31
2018-07-31T12:48:41.658Z,23.31
2018-07-31T12:49:41.365Z,23.31
2018-07-31T12:50:41.546Z,23.31
2018-07-31T12:51:41.576Z,23.31
2018-07-31T12:52:41.276Z,23.31
2018-07-31T12:53:41.359Z,23.31
2018-07-31T12:54:41.301Z,23.32
2018-07-31T12:55:41.279Z,23.32
2018-07-31T12:56:41.649Z,23.31
2018-07-31T12:57:41.354Z,23.31